Time;durP1;ratioP1;P1;durP2;ratioP2;P2;SDS_P1;SDS_P2;PMS_P1;PMS_P2;Temp;Humidity;BMP_temperature;BMP_pressure;BME280_temperature;BME280_humidity;BME280_pressure;Samples;Min_cycle;Max_cycle;Signal;HPM_P1;HPM_P2
2023/09/10 00:00:58;;;;;;;8.77;5.53;;;20.30;99.90;;;;;;5015044;28;20033;-49
2023/09/10 00:03:23;;;;;;;6.40;5.35;;;20.20;99.90;;;;;;4982411;28;20033;-49
2023/09/10 00:05:49;;;;;;;6.25;5.18;;;20.10;99.90;;;;;;5015147;28;20041;-54
2023/09/10 00:08:15;;;;;;;6.95;5.70;;;;;;;;;;4998337;28;20041;-49
2023/09/10 00:10:42;;;;;;;10.45;6.60;;;19.90;99.90;;;;;;5014720;28;20041;-50
2023/09/10 00:13:08;;;;;;;8.98;6.80;;;20.00;99.90;;;;;;5014852;28;20041;-49
2023/09/10 00:15:34;;;;;;;15.73;6.68;;;20.10;99.90;;;;;;5032979;28;20037;-52
2023/09/10 00:18:00;;;;;;;8.65;6.75;;;;;;;;;;5033116;28;20044;-52
2023/09/10 00:20:27;;;;;;;8.45;6.28;;;19.90;99.90;;;;;;5033466;28;20373;-51
2023/09/10 00:22:52;;;;;;;12.15;7.05;;;19.70;99.90;;;;;;5033210;28;20026;-51
2023/09/10 00:25:18;;;;;;;10.52;6.65;;;19.80;99.90;;;;;;5033041;28;20022;-51
2023/09/10 00:27:44;;;;;;;13.32;7.13;;;19.90;99.90;;;;;;5036557;28;20378;-51
2023/09/10 00:30:10;;;;;;;10.65;7.25;;;19.90;99.90;;;;;;5018708;28;20041;-51
2023/09/10 00:32:36;;;;;;;11.02;6.88;;;19.80;99.90;;;;;;4985766;28;20432;-49
2023/09/10 00:35:03;;;;;;;10.38;6.85;;;19.90;99.90;;;;;;5036962;28;20101;-51
2023/09/10 00:37:29;;;;;;;10.90;7.20;;;19.90;99.90;;;;;;5036878;28;20064;-53
2023/09/10 00:39:54;;;;;;;10.70;7.47;;;19.90;99.90;;;;;;5036659;28;20029;-51
2023/09/10 00:42:20;;;;;;;9.45;6.53;;;19.90;99.90;;;;;;5037085;28;20040;-51
2023/09/10 00:44:46;;;;;;;11.45;7.22;;;19.90;99.90;;;;;;5036721;28;20033;-50
2023/09/10 00:47:12;;;;;;;8.07;6.60;;;19.90;99.90;;;;;;5028771;28;20029;-53
2023/09/10 00:49:38;;;;;;;10.98;6.30;;;19.90;99.90;;;;;;5036172;28;20025;-49
2023/09/10 00:52:05;;;;;;;11.00;7.05;;;19.90;99.90;;;;;;5034893;28;20557;-50
2023/09/10 00:54:35;;;;;;;9.82;7.28;;;20.00;99.90;;;;;;5036950;28;20028;-52
2023/09/10 00:57:02;;;;;;;15.07;7.30;;;;;;;;;;5036802;28;20036;-52
2023/09/10 00:59:29;;;;;;;10.68;6.60;;;19.30;99.90;;;;;;5036379;28;20112;-49
2023/09/10 01:01:55;;;;;;;9.52;6.80;;;19.20;99.90;;;;;;5036309;28;20089;-54
2023/09/10 01:04:22;;;;;;;11.02;7.47;;;;;;;;;;5036458;28;20025;-54
2023/09/10 01:06:49;;;;;;;11.43;7.45;;;;;;;;;;5036180;28;20040;-51
2023/09/10 01:09:15;;;;;;;10.10;6.82;;;18.10;99.90;;;;;;5036175;28;20040;-51
2023/09/10 01:12:00;;;;;;;10.38;7.15;;;17.70;99.90;;;;;;5036192;28;20029;-50
2023/09/10 01:14:34;;;;;;;11.00;7.20;;;17.60;99.90;;;;;;5036013;28;20036;-52
2023/09/10 01:17:14;;;;;;;7.60;6.18;;;17.50;99.90;;;;;;5036148;28;20029;-49
2023/09/10 01:19:53;;;;;;;9.60;6.43;;;;;;;;;;5035893;28;20029;-51
2023/09/10 01:22:50;;;;;;;7.63;5.65;;;17.30;99.90;;;;;;5036171;28;20109;-50
2023/09/10 01:25:16;;;;;;;10.18;5.68;;;17.10;99.90;;;;;;5036172;28;20033;-54
2023/09/10 01:27:43;;;;;;;8.25;6.35;;;17.50;99.90;;;;;;5035529;28;20050;-54
2023/09/10 01:30:09;;;;;;;9.80;6.80;;;17.80;99.90;;;;;;5035964;28;20037;-49
2023/09/10 01:32:41;;;;;;;9.00;6.20;;;18.10;99.90;;;;;;5017409;28;20041;-50
2023/09/10 01:35:13;;;;;;;7.15;6.45;;;18.10;99.90;;;;;;5035745;28;20034;-52
2023/09/10 01:38:05;;;;;;;8.18;6.43;;;17.80;99.90;;;;;;5033153;28;20033;-53
2023/09/10 01:40:39;;;;;;;10.65;7.45;;;17.70;99.90;;;;;;5036088;28;20469;-52
2023/09/10 01:43:06;;;;;;;13.00;7.00;;;17.70;99.90;;;;;;5035440;28;20025;-52
2023/09/10 01:45:34;;;;;;;9.82;7.00;;;17.60;99.90;;;;;;5035727;28;20026;-49
2023/09/10 01:48:01;;;;;;;8.00;6.65;;;17.40;99.90;;;;;;5033617;28;20118;-49
2023/09/10 01:50:30;;;;;;;10.00;6.85;;;17.40;99.90;;;;;;5035978;28;20033;-51
2023/09/10 01:52:59;;;;;;;9.60;6.18;;;17.30;99.90;;;;;;5033509;28;20172;-51
2023/09/10 01:55:25;;;;;;;9.07;7.15;;;17.20;99.90;;;;;;5000454;28;20041;-49
2023/09/10 01:57:54;;;;;;;8.77;6.85;;;17.00;99.90;;;;;;5033589;28;20071;-49
2023/09/10 02:00:19;;;;;;;9.07;6.75;;;16.90;99.90;;;;;;5035441;28;20040;-50
2023/09/10 02:02:45;;;;;;;8.43;6.85;;;16.90;99.90;;;;;;5016592;28;20396;-49
2023/09/10 02:05:11;;;;;;;10.30;7.10;;;17.00;99.90;;;;;;5033328;28;20116;-51
2023/09/10 02:07:36;;;;;;;12.43;7.80;;;17.00;99.90;;;;;;5033276;28;20099;-52
2023/09/10 02:10:03;;;;;;;9.50;6.63;;;17.20;99.90;;;;;;5035304;28;20033;-50
2023/09/10 02:12:29;;;;;;;10.07;7.00;;;17.20;99.90;;;;;;5035087;28;20029;-52
2023/09/10 02:14:58;;;;;;;11.02;6.53;;;17.10;99.90;;;;;;5035157;28;20052;-51
2023/09/10 02:17:24;;;;;;;8.40;7.00;;;17.20;99.90;;;;;;5035136;28;20068;-49
2023/09/10 02:19:50;;;;;;;9.35;6.45;;;17.20;99.90;;;;;;5034933;28;20438;-52
2023/09/10 02:22:16;;;;;;;9.65;5.93;;;;;;;;;;5033112;28;20046;-50
2023/09/10 02:24:42;;;;;;;9.30;6.75;;;17.80;99.90;;;;;;5032963;28;20038;-54
2023/09/10 02:27:07;;;;;;;17.23;6.75;;;18.00;99.90;;;;;;5034319;28;20401;-51
2023/09/10 02:29:33;;;;;;;10.48;6.20;;;18.20;99.90;;;;;;5034961;28;20045;-52
2023/09/10 02:31:59;;;;;;;8.75;6.10;;;18.20;99.90;;;;;;5034703;28;20029;-52
2023/09/10 02:34:24;;;;;;;8.23;6.47;;;18.30;99.90;;;;;;5032851;28;20045;-52
2023/09/10 02:36:51;;;;;;;10.30;6.05;;;18.40;99.90;;;;;;5016308;28;20077;-51
2023/09/10 02:39:17;;;;;;;9.32;6.82;;;18.50;99.90;;;;;;5032803;28;20060;-53
2023/09/10 02:41:44;;;;;;;8.40;6.43;;;18.60;99.90;;;;;;5034862;28;20450;-50
2023/09/10 02:44:10;;;;;;;13.98;7.07;;;18.60;99.90;;;;;;5034528;28;20107;-53
2023/09/10 02:46:36;;;;;;;10.00;6.50;;;18.60;99.90;;;;;;5034227;28;20470;-51
2023/09/10 02:49:01;;;;;;;9.30;6.32;;;18.30;99.90;;;;;;5033388;28;20084;-48
2023/09/10 02:51:28;;;;;;;7.72;6.25;;;18.40;99.90;;;;;;5015657;28;20041;-55
2023/09/10 02:53:55;;;;;;;10.77;6.25;;;18.50;99.90;;;;;;5034100;28;20033;-51
2023/09/10 02:56:20;;;;;;;8.48;6.60;;;18.50;99.90;;;;;;5034288;28;20029;-49
2023/09/10 02:58:46;;;;;;;8.73;6.45;;;18.50;99.90;;;;;;5034063;28;20036;-52
2023/09/10 03:01:12;;;;;;;7.13;6.13;;;18.60;99.90;;;;;;5032269;28;20041;-50
2023/09/10 03:03:37;;;;;;;9.85;6.25;;;18.50;99.90;;;;;;5015902;28;20038;-53
2023/09/10 03:06:11;;;;;;;8.45;6.25;;;18.50;99.90;;;;;;5033894;28;20120;-50
2023/09/10 03:08:37;;;;;;;10.88;7.18;;;18.60;99.90;;;;;;5034022;28;20116;-48
2023/09/10 03:11:04;;;;;;;14.98;7.03;;;18.60;99.90;;;;;;5033626;28;20503;-49
2023/09/10 03:13:30;;;;;;;10.77;6.80;;;18.60;99.90;;;;;;5033967;28;20477;-48
2023/09/10 03:15:55;;;;;;;9.68;6.60;;;18.60;99.90;;;;;;5033731;28;20033;-51
2023/09/10 03:18:21;;;;;;;12.80;6.55;;;18.60;99.90;;;;;;5033902;28;20369;-52
2023/09/10 03:20:47;;;;;;;11.93;6.40;;;18.60;99.90;;;;;;5031984;28;20041;-54
2023/09/10 03:23:12;;;;;;;10.18;6.32;;;18.60;99.90;;;;;;5033646;28;20033;-51
2023/09/10 03:25:39;;;;;;;15.95;7.03;;;18.60;99.90;;;;;;5033848;28;20022;-51
2023/09/10 03:28:06;;;;;;;8.00;6.75;;;18.60;99.90;;;;;;5033321;28;20057;-52
2023/09/10 03:30:32;;;;;;;15.27;6.70;;;18.60;99.90;;;;;;5033611;28;20029;-54
2023/09/10 03:32:57;;;;;;;12.23;5.82;;;18.60;99.90;;;;;;5033413;28;20440;-52
2023/09/10 03:35:23;;;;;;;11.13;6.10;;;18.60;99.90;;;;;;5031402;28;20103;-52
2023/09/10 03:37:50;;;;;;;17.65;6.43;;;18.50;99.90;;;;;;5034255;28;20029;-48
2023/09/10 03:40:16;;;;;;;9.10;6.60;;;18.60;99.90;;;;;;5015125;28;20041;-47
2023/09/10 03:42:41;;;;;;;9.50;6.15;;;18.50;99.90;;;;;;5015275;28;20128;-53
2023/09/10 03:45:08;;;;;;;13.98;6.30;;;18.50;99.90;;;;;;5033261;28;20041;-49
2023/09/10 03:47:36;;;;;;;7.75;5.95;;;18.60;99.90;;;;;;5033448;28;20046;-50
2023/09/10 03:50:02;;;;;;;11.88;6.40;;;18.60;99.90;;;;;;5033461;28;20034;-49
2023/09/10 03:52:29;;;;;;;7.18;5.68;;;18.50;99.90;;;;;;5033698;28;20075;-49
2023/09/10 03:54:54;;;;;;;9.40;5.97;;;18.50;99.90;;;;;;5033320;28;20061;-54
2023/09/10 03:57:20;;;;;;;9.27;6.25;;;18.50;99.90;;;;;;5033087;28;20126;-51
2023/09/10 03:59:46;;;;;;;8.68;5.65;;;18.50;99.90;;;;;;5033251;28;20056;-53
2023/09/10 04:02:12;;;;;;;8.55;5.90;;;18.50;99.90;;;;;;5033529;28;20472;-51
2023/09/10 04:04:38;;;;;;;6.75;6.05;;;18.50;99.90;;;;;;5015301;28;20038;-50
2023/09/10 04:07:04;;;;;;;11.70;6.53;;;18.40;99.90;;;;;;5033061;28;20382;-50
2023/09/10 04:09:30;;;;;;;9.73;6.30;;;18.40;99.90;;;;;;5033374;28;20034;-50
2023/09/10 04:11:57;;;;;;;10.00;5.70;;;18.40;99.90;;;;;;5031956;28;20030;-53
2023/09/10 04:14:23;;;;;;;8.10;5.72;;;18.40;99.90;;;;;;5032935;28;20053;-50
2023/09/10 04:16:49;;;;;;;9.55;6.38;;;18.40;99.90;;;;;;5033105;28;20076;-49
2023/09/10 04:19:15;;;;;;;10.68;5.88;;;18.50;99.90;;;;;;5032900;28;20037;-53
2023/09/10 04:21:41;;;;;;;10.73;6.05;;;18.50;99.90;;;;;;5033146;28;20048;-52
2023/09/10 04:24:07;;;;;;;5.85;5.18;;;18.50;99.90;;;;;;5033068;28;20037;-49
2023/09/10 04:26:33;;;;;;;9.25;5.93;;;18.30;99.90;;;;;;5032841;28;20064;-53
2023/09/10 04:28:59;;;;;;;6.53;5.75;;;18.10;99.90;;;;;;5032951;28;20440;-52
2023/09/10 04:31:25;;;;;;;10.93;5.70;;;18.00;99.90;;;;;;5033445;28;20047;-49
2023/09/10 04:33:51;;;;;;;9.40;7.57;;;18.10;99.90;;;;;;5033386;28;20473;-49
2023/09/10 04:36:16;;;;;;;11.20;7.97;;;18.10;99.90;;;;;;5032785;28;20469;-50
2023/09/10 04:38:42;;;;;;;11.20;7.88;;;17.70;99.90;;;;;;5032922;28;20120;-50
2023/09/10 04:41:08;;;;;;;10.88;7.18;;;17.50;99.90;;;;;;5014656;28;20367;-49
2023/09/10 04:43:34;;;;;;;10.68;8.68;;;17.60;99.90;;;;;;5033032;28;20044;-52
2023/09/10 04:45:59;;;;;;;8.70;7.07;;;17.70;99.90;;;;;;5014658;28;20045;-49
2023/09/10 04:48:25;;;;;;;7.97;6.10;;;17.70;99.90;;;;;;5014362;28;20077;-51
2023/09/10 04:50:51;;;;;;;9.60;6.10;;;17.30;99.90;;;;;;5032963;28;20045;-49
2023/09/10 04:53:17;;;;;;;7.25;5.38;;;17.30;99.90;;;;;;5032653;28;20552;-50
2023/09/10 04:55:43;;;;;;;7.68;5.10;;;;;;;;;;5033049;28;20034;-48
2023/09/10 04:58:12;;;;;;;8.70;6.13;;;16.70;99.90;;;;;;5032962;28;20428;-51
2023/09/10 05:00:41;;;;;;;5.72;5.13;;;;;;;;;;5032704;28;20057;-49
2023/09/10 05:03:07;;;;;;;6.50;5.72;;;17.20;99.90;;;;;;5032614;28;20389;-48
2023/09/10 05:05:32;;;;;;;9.98;5.32;;;17.40;99.90;;;;;;5032769;28;20037;-51
2023/09/10 05:07:59;;;;;;;6.40;5.57;;;;;;;;;;5033225;28;20411;-51
2023/09/10 05:10:25;;;;;;;8.57;5.28;;;;;;;;;;5032512;28;20034;-51
2023/09/10 05:12:52;;;;;;;8.13;5.28;;;;;;;;;;5033250;28;20485;-52
2023/09/10 05:15:18;;;;;;;6.60;5.43;;;;;;;;;;5036221;28;20029;-49
2023/09/10 05:17:44;;;;;;;8.13;6.35;;;17.90;99.90;;;;;;5035959;28;20029;-50
2023/09/10 05:20:10;;;;;;;8.20;6.20;;;;;;;;;;5017734;28;20052;-53
2023/09/10 05:22:35;;;;;;;9.90;6.38;;;17.20;99.90;;;;;;5017775;28;20038;-50
2023/09/10 05:25:02;;;;;;;14.23;6.20;;;17.40;99.90;;;;;;5035927;28;20497;-49
2023/09/10 05:27:28;;;;;;;15.93;6.30;;;17.80;99.90;;;;;;5017448;28;20060;-50
2023/09/10 05:29:53;;;;;;;10.45;5.97;;;18.20;99.90;;;;;;5036070;28;20041;-51
2023/09/10 05:32:19;;;;;;;10.25;6.00;;;18.50;99.90;;;;;;5035679;28;20044;-53
2023/09/10 05:34:45;;;;;;;8.23;6.47;;;18.80;99.90;;;;;;5035795;28;20359;-52
2023/09/10 05:37:12;;;;;;;9.25;5.90;;;18.90;99.90;;;;;;5017575;28;20466;-48
2023/09/10 05:39:39;;;;;;;9.68;8.00;;;19.30;99.90;;;;;;5036063;28;20052;-52
2023/09/10 05:42:05;;;;;;;9.02;6.95;;;19.20;99.90;;;;;;5017475;28;20042;-50
2023/09/10 05:44:30;;;;;;;8.85;6.45;;;19.40;99.90;;;;;;5000957;28;20049;-50
2023/09/10 05:46:56;;;;;;;6.68;5.80;;;19.70;99.90;;;;;;5035818;28;20037;-50
2023/09/10 05:49:22;;;;;;;9.25;6.30;;;19.70;99.90;;;;;;5035325;28;20041;-50
2023/09/10 05:51:47;;;;;;;9.43;6.88;;;19.80;99.90;;;;;;5035858;28;20030;-52
2023/09/10 05:54:13;;;;;;;14.88;8.43;;;19.90;99.90;;;;;;5017051;28;20052;-52
2023/09/10 05:56:39;;;;;;;13.27;8.27;;;20.10;99.90;;;;;;5035317;28;20033;-49
2023/09/10 05:59:05;;;;;;;11.02;8.52;;;20.20;99.90;;;;;;5035532;28;20029;-51
2023/09/10 06:01:31;;;;;;;9.43;8.15;;;20.40;99.90;;;;;;5035397;28;20075;-52
2023/09/10 06:03:59;;;;;;;13.27;9.23;;;;;;;;;;5035470;28;20033;-50
2023/09/10 06:06:27;;;;;;;15.80;8.93;;;;;;;;;;5035089;28;20037;-49
2023/09/10 06:08:53;;;;;;;10.95;9.07;;;;;;;;;;5035108;28;20073;-48
2023/09/10 06:11:19;;;;;;;10.73;7.95;;;20.90;99.90;;;;;;5035379;28;20053;-53
2023/09/10 06:13:45;;;;;;;13.82;8.02;;;21.00;99.90;;;;;;5035351;28;20558;-49
2023/09/10 06:16:11;;;;;;;11.40;8.30;;;21.20;99.90;;;;;;5035031;28;20069;-49
2023/09/10 06:18:36;;;;;;;13.82;7.88;;;21.30;99.90;;;;;;5035123;28;20021;-52
2023/09/10 06:21:02;;;;;;;12.90;8.18;;;21.30;99.90;;;;;;5034914;28;20377;-52
2023/09/10 06:23:28;;;;;;;16.05;7.10;;;21.60;99.90;;;;;;5016193;28;20037;-49
2023/09/10 06:25:54;;;;;;;9.32;7.47;;;;;;;;;;5034782;28;20400;-50
2023/09/10 06:28:20;;;;;;;9.15;6.95;;;;;;;;;;5016223;28;20073;-50
2023/09/10 06:30:47;;;;;;;7.55;6.30;;;;;;;;;;5034799;28;20087;-50
2023/09/10 06:33:13;;;;;;;11.27;6.68;;;;;;;;;;5034698;28;20128;-52
2023/09/10 06:35:39;;;;;;;10.50;6.75;;;22.40;99.90;;;;;;5034626;28;20064;-52
2023/09/10 06:38:04;;;;;;;9.93;6.75;;;22.30;99.90;;;;;;5034471;28;20041;-51
2023/09/10 06:40:30;;;;;;;10.10;6.30;;;22.50;99.90;;;;;;5034383;28;20045;-48
2023/09/10 06:42:56;;;;;;;7.60;5.63;;;22.70;99.90;;;;;;5034668;28;20091;-49
2023/09/10 06:45:21;;;;;;;9.88;6.93;;;22.80;99.90;;;;;;5034641;28;20038;-51
2023/09/10 06:47:48;;;;;;;13.13;6.47;;;;;;;;;;5034498;28;20041;-51
2023/09/10 06:50:14;;;;;;;9.73;5.90;;;;;;;;;;5015916;28;20044;-53
2023/09/10 06:52:40;;;;;;;9.32;6.43;;;;;;;;;;5016033;28;20041;-52
2023/09/10 06:55:07;;;;;;;9.00;6.05;;;23.10;99.90;;;;;;5015944;28;20076;-53
2023/09/10 06:57:34;;;;;;;13.80;6.88;;;;;;;;;;5015857;28;20083;-54
2023/09/10 07:00:00;;;;;;;11.73;6.22;;;;;;;;;;5034416;28;20056;-50
2023/09/10 07:02:26;;;;;;;8.10;6.18;;;;;;;;;;5034014;28;20056;-49
2023/09/10 07:04:52;;;;;;;10.70;6.10;;;;;;;;;;5033990;28;20040;-53
2023/09/10 07:07:18;;;;;;;8.23;6.05;;;23.60;99.90;;;;;;5033838;28;20037;-50
2023/09/10 07:09:44;;;;;;;7.80;6.35;;;23.70;99.90;;;;;;5034272;28;20119;-51
2023/09/10 07:12:09;;;;;;;8.18;6.30;;;23.70;99.90;;;;;;5015752;28;20041;-51
2023/09/10 07:14:35;;;;;;;12.52;5.85;;;;;;;;;;5015503;28;20045;-50
2023/09/10 07:17:02;;;;;;;8.93;6.45;;;;;;;;;;5026201;28;20476;-52
2023/09/10 07:19:28;;;;;;;8.40;6.38;;;24.20;99.90;;;;;;5014172;28;20034;-52
2023/09/10 07:21:54;;;;;;;13.20;6.30;;;24.30;99.70;;;;;;5014071;28;20497;-54
2023/09/10 07:24:20;;;;;;;9.63;6.25;;;24.50;99.80;;;;;;5012151;28;20050;-49
2023/09/10 07:26:46;;;;;;;7.47;5.97;;;;;;;;;;5013781;28;20489;-49
2023/09/10 07:29:16;;;;;;;9.00;6.05;;;24.80;99.90;;;;;;5013990;28;20038;-50
2023/09/10 07:31:42;;;;;;;9.68;6.50;;;24.90;99.00;;;;;;5013976;28;20034;-49
2023/09/10 07:34:09;;;;;;;11.27;6.40;;;25.20;99.00;;;;;;5013836;28;20029;-53
2023/09/10 07:36:35;;;;;;;8.20;6.05;;;;;;;;;;5013055;28;20560;-51
2023/09/10 07:39:01;;;;;;;8.45;6.28;;;25.40;98.30;;;;;;5013825;28;20018;-53
2023/09/10 07:41:27;;;;;;;8.15;6.00;;;;;;;;;;5014036;28;20059;-50
2023/09/10 07:43:53;;;;;;;10.98;6.63;;;;;;;;;;5013770;28;20045;-53
2023/09/10 07:46:19;;;;;;;11.82;6.30;;;26.20;99.90;;;;;;5012100;28;20033;-53
2023/09/10 07:48:45;;;;;;;8.98;6.35;;;26.30;98.00;;;;;;5013763;28;20041;-51
2023/09/10 07:51:11;;;;;;;8.35;6.32;;;26.50;98.20;;;;;;5014002;28;20038;-52
2023/09/10 07:53:37;;;;;;;9.57;6.70;;;;;;;;;;5013685;28;20029;-49
2023/09/10 07:56:03;;;;;;;9.75;6.68;;;;;;;;;;5013597;28;20030;-50
2023/09/10 07:58:29;;;;;;;11.43;6.38;;;;;;;;;;5011935;28;20053;-51
2023/09/10 08:00:56;;;;;;;9.88;6.18;;;;;;;;;;5014116;28;20026;-52
2023/09/10 08:03:22;;;;;;;7.80;6.40;;;27.70;99.90;;;;;;5013637;28;20069;-53
2023/09/10 08:05:48;;;;;;;12.10;6.90;;;27.90;96.90;;;;;;5013524;28;20429;-53
2023/09/10 08:08:14;;;;;;;9.63;6.88;;;;;;;;;;5013886;28;20049;-49
2023/09/10 08:10:43;;;;;;;13.10;6.85;;;;;;;;;;5013589;28;20117;-53
2023/09/10 08:13:12;;;;;;;9.50;6.57;;;;;;;;;;5013692;28;20034;-54
2023/09/10 08:15:38;;;;;;;9.55;6.78;;;28.90;95.90;;;;;;5013539;28;20080;-53
2023/09/10 08:18:10;;;;;;;8.30;6.78;;;28.90;96.10;;;;;;5013412;28;20149;-53
2023/09/10 08:20:36;;;;;;;;;;;28.50;95.60;;;;;;5011746;28;20073;-49
2023/09/10 08:23:03;;;;;;;8.35;6.30;;;;;;;;;;5024963;28;20423;-50
2023/09/10 08:25:29;;;;;;;13.68;9.57;;;;;;;;;;5032214;28;20057;-53
2023/09/10 08:27:55;;;;;;;9.38;6.40;;;;;;;;;;5032022;28;20516;-51
2023/09/10 08:30:21;;;;;;;9.45;5.93;;;;;;;;;;5031528;28;20029;-52
2023/09/10 08:32:47;;;;;;;11.52;5.07;;;30.30;99.90;;;;;;5032281;28;20053;-53
2023/09/10 08:35:14;;;;;;;8.02;5.45;;;;;;;;;;5032489;28;20366;-51
2023/09/10 08:37:39;;;;;;;9.10;5.60;;;30.50;99.90;;;;;;5012662;28;20391;-52
2023/09/10 08:40:08;;;;;;;12.02;8.77;;;;;;;;;;5032388;28;20027;-53
2023/09/10 08:42:45;;;;;;;7.60;4.90;;;30.90;99.90;;;;;;5032181;28;20033;-49
2023/09/10 08:45:12;;;;;;;8.38;5.75;;;31.00;93.30;;;;;;5032439;28;20065;-50
2023/09/10 08:47:40;;;;;;;7.22;5.80;;;31.10;93.50;;;;;;5035229;28;20044;-49
2023/09/10 08:50:11;;;;;;;8.00;5.55;;;;;;;;;;5036127;28;20108;-52
2023/09/10 08:52:44;;;;;;;11.65;5.60;;;;;;;;;;5036394;28;20072;-50
2023/09/10 08:55:11;;;;;;;8.45;5.43;;;31.70;93.20;;;;;;5036958;28;20037;-54
2023/09/10 08:57:39;;;;;;;7.93;5.35;;;;;;;;;;5036947;28;20055;-50
2023/09/10 09:00:12;;;;;;;11.00;6.00;;;;;;;;;;5036496;28;20083;-52
2023/09/10 09:02:45;;;;;;;10.00;5.43;;;;;;;;;;5036123;28;20033;-50
2023/09/10 09:05:12;;;;;;;9.15;5.43;;;;;;;;;;5036382;28;20036;-51
2023/09/10 09:08:04;;;;;;;7.43;5.45;;;;;;;;;;5036129;28;20377;-53
2023/09/10 09:10:30;;;;;;;8.18;5.97;;;;;;;;;;5033443;28;20069;-49
2023/09/10 09:12:57;;;;;;;7.88;5.05;;;;;;;;;;5036392;28;20044;-53
2023/09/10 09:15:24;;;;;;;6.78;4.97;;;32.00;91.30;;;;;;5036327;28;20036;-49
2023/09/10 09:17:51;;;;;;;6.78;5.13;;;31.90;91.70;;;;;;5035950;28;20033;-53
2023/09/10 09:20:18;;;;;;;10.85;5.28;;;32.10;92.10;;;;;;5036393;28;20044;-50
2023/09/10 09:22:47;;;;;;;10.38;5.03;;;;;;;;;;5036345;28;20037;-51
2023/09/10 09:25:13;;;;;;;9.93;5.28;;;33.20;94.30;;;;;;5035961;28;20394;-52
2023/09/10 09:27:41;;;;;;;8.07;5.32;;;33.40;92.10;;;;;;5035736;28;20041;-51
2023/09/10 09:30:07;;;;;;;9.40;5.30;;;;;;;;;;5036143;28;20029;-53
2023/09/10 09:32:37;;;;;;;8.23;4.93;;;;;;;;;;5035830;28;20037;-50
2023/09/10 09:35:04;;;;;;;9.40;4.97;;;34.30;96.70;;;;;;5035648;28;20030;-52
2023/09/10 09:37:31;;;;;;;7.03;5.55;;;34.60;91.70;;;;;;5017799;28;20042;-49
2023/09/10 09:39:58;;;;;;;12.05;5.03;;;34.00;90.30;;;;;;5035616;28;20040;-54
2023/09/10 09:42:24;;;;;;;6.57;4.85;;;33.70;90.80;;;;;;5035633;28;20063;-52
2023/09/10 09:44:50;;;;;;;6.53;5.10;;;33.80;90.70;;;;;;5017223;28;20041;-52
2023/09/10 09:47:16;;;;;;;7.63;4.65;;;33.80;90.10;;;;;;5035538;28;20037;-50
2023/09/10 09:49:55;;;;;;;6.95;4.25;;;34.30;90.30;;;;;;5035575;28;20129;-48
2023/09/10 09:52:21;;;;;;;7.93;4.93;;;;;;;;;;5035843;28;20034;-51
2023/09/10 09:54:48;;;;;;;9.55;5.28;;;;;;;;;;5035409;28;20062;-52
2023/09/10 09:57:15;;;;;;;6.72;5.50;;;35.30;89.10;;;;;;5035401;28;20385;-50
2023/09/10 09:59:40;;;;;;;8.65;4.63;;;35.30;90.00;;;;;;5034672;28;20048;-51
2023/09/10 10:02:12;;;;;;;7.20;4.60;;;35.20;90.00;;;;;;5035773;28;20373;-50
2023/09/10 10:04:40;;;;;;;7.38;4.95;;;34.70;88.60;;;;;;5035366;28;20044;-51
2023/09/10 10:07:07;;;;;;;10.00;4.13;;;34.80;88.50;;;;;;5034948;28;20404;-52
2023/09/10 10:09:37;;;;;;;8.10;4.53;;;34.90;90.00;;;;;;5035099;28;20540;-54
2023/09/10 10:12:04;;;;;;;6.65;4.82;;;;;;;;;;5035124;28;20040;-53
2023/09/10 10:14:32;;;;;;;7.50;5.25;;;;;;;;;;5016776;28;20083;-51
2023/09/10 10:17:00;;;;;;;5.75;4.60;;;;;;;;;;5016607;28;20041;-49
2023/09/10 10:19:30;;;;;;;5.88;4.72;;;36.00;95.20;;;;;;5034933;28;20508;-50
2023/09/10 10:21:56;;;;;;;6.40;4.32;;;;;;;;;;5034983;28;20044;-53
2023/09/10 10:24:23;;;;;;;8.15;4.70;;;;;;;;;;5034829;28;20064;-53
2023/09/10 10:26:51;;;;;;;12.70;9.30;;;;;;;;;;5034799;28;20084;-51
2023/09/10 10:29:21;;;;;;;18.17;10.90;;;;;;;;;;5034815;28;20041;-50
2023/09/10 10:32:09;;;;;;;42.65;28.83;;;36.40;98.80;;;;;;5034829;28;20025;-53
2023/09/10 10:34:48;;;;;;;17.42;12.10;;;36.40;96.90;;;;;;5034691;28;20033;-50
2023/09/10 10:37:24;;;;;;;12.43;9.68;;;;;;;;;;5034826;28;20120;-54
2023/09/10 10:40:01;;;;;;;10.90;4.82;;;36.70;92.90;;;;;;5034437;28;20239;-51
2023/09/10 10:42:37;;;;;;;5.18;4.45;;;36.30;91.90;;;;;;5016568;28;20045;-50
2023/09/10 10:45:09;;;;;;;32.33;25.63;;;;;;;;;;5013260;28;20049;-53
2023/09/10 10:47:40;;;;;;;8.38;6.10;;;36.40;99.90;;;;;;5016789;28;20056;-54
2023/09/10 10:50:09;;;;;;;39.53;25.83;;;35.50;87.10;;;;;;5034760;28;20029;-48
2023/09/10 10:52:45;;;;;;;7.07;5.38;;;35.50;86.60;;;;;;5034592;28;20025;-48
2023/09/10 10:55:12;;;;;;;10.93;5.45;;;35.70;86.40;;;;;;5034230;28;20030;-51
2023/09/10 10:57:39;;;;;;;7.38;5.35;;;;;;;;;;5015972;28;20042;-52
2023/09/10 11:00:25;;;;;;;7.38;4.63;;;35.30;86.00;;;;;;5034339;28;20377;-52
2023/09/10 11:03:11;;;;;;;5.28;4.55;;;36.10;87.50;;;;;;4979203;28;20090;-53
2023/09/10 11:05:52;;;;;;;24.17;13.75;;;36.70;87.70;;;;;;4973129;28;20046;-51
2023/09/10 11:08:28;;;;;;;11.02;5.50;;;;;;;;;;4973130;28;20144;-49
2023/09/10 11:10:54;;;;;;;58.67;36.15;;;36.50;94.00;;;;;;4972283;28;20043;-52
2023/09/10 11:13:22;;;;;;;9.38;6.22;;;;;;;;;;4972929;28;20035;-50
2023/09/10 11:16:06;;;;;;;9.30;6.47;;;38.10;88.10;;;;;;4973081;28;20492;-51
2023/09/10 11:18:34;;;;;;;9.25;5.80;;;35.90;86.30;;;;;;4972899;28;20841;-50
2023/09/10 11:21:29;;;;;;;21.35;15.68;;;36.40;87.50;;;;;;4972882;28;20138;-49
2023/09/10 11:23:55;;;;;;;7.50;4.65;;;36.30;85.80;;;;;;4950988;28;20043;-48
2023/09/10 11:26:21;;;;;;;6.93;4.63;;;35.60;91.90;;;;;;4972746;28;20047;-51
2023/09/10 11:28:54;;;;;;;5.88;4.15;;;36.00;86.20;;;;;;4972734;28;20051;-52
2023/09/10 11:31:38;;;;;;;8.80;4.30;;;35.80;85.60;;;;;;4972926;28;20046;-50
2023/09/10 11:34:15;;;;;;;9.77;5.03;;;35.90;85.30;;;;;;4972661;28;20039;-53
2023/09/10 11:36:54;;;;;;;10.98;8.43;;;36.70;96.70;;;;;;4982513;28;20077;-51
2023/09/10 11:39:21;;;;;;;8.68;5.88;;;36.20;95.60;;;;;;4996220;28;20140;-51
2023/09/10 11:41:53;;;;;;;7.03;4.38;;;35.70;85.80;;;;;;5033483;28;20061;-50
2023/09/10 11:44:19;;;;;;;7.22;4.05;;;;;;;;;;5029572;28;20033;-53
2023/09/10 11:46:45;;;;;;;5.80;4.15;;;36.50;99.90;;;;;;5033271;28;20026;-51
2023/09/10 11:49:12;;;;;;;7.50;3.92;;;36.30;99.90;;;;;;5033212;28;20055;-53
2023/09/10 11:51:45;;;;;;;5.75;4.18;;;36.20;99.90;;;;;;5033574;28;20481;-49
2023/09/10 11:54:16;;;;;;;5.70;3.85;;;36.40;86.90;;;;;;5015385;28;20504;-51
2023/09/10 11:56:46;;;;;;;7.45;4.20;;;;;;;;;;5033355;28;20456;-49
2023/09/10 11:59:15;;;;;;;7.35;3.90;;;;;;;;;;5033123;28;20478;-51
2023/09/10 12:01:42;;;;;;;6.55;3.70;;;;;;;;;;5033848;28;20032;-52
2023/09/10 12:04:07;;;;;;;5.97;3.97;;;36.40;99.90;;;;;;5014994;28;20067;-51
2023/09/10 12:06:33;;;;;;;5.25;4.28;;;35.80;94.60;;;;;;5015100;28;20033;-53
2023/09/10 12:08:59;;;;;;;5.53;3.75;;;36.10;96.30;;;;;;5033224;28;20525;-53
2023/09/10 12:11:26;;;;;;;4.68;3.67;;;35.90;95.80;;;;;;5033509;28;20439;-52
2023/09/10 12:13:53;;;;;;;4.95;3.63;;;;;;;;;;5033344;28;20120;-52
2023/09/10 12:16:19;;;;;;;5.05;4.22;;;;;;;;;;5033191;28;20481;-53
2023/09/10 12:18:46;;;;;;;5.45;3.80;;;36.80;84.40;;;;;;5033497;28;20104;-50
2023/09/10 12:21:15;;;;;;;9.60;3.83;;;36.90;84.00;;;;;;5032582;28;20033;-50
2023/09/10 12:23:41;;;;;;;4.65;4.15;;;36.30;84.20;;;;;;5036918;28;20041;-50
2023/09/10 12:26:09;;;;;;;4.63;4.13;;;35.90;84.10;;;;;;5036938;28;20066;-49
2023/09/10 12:28:35;;;;;;;6.22;3.75;;;35.90;84.00;;;;;;5037130;28;20064;-53
2023/09/10 12:31:02;;;;;;;7.43;4.15;;;36.40;84.70;;;;;;5037319;28;20481;-52
2023/09/10 12:33:28;;;;;;;7.13;4.25;;;36.40;84.20;;;;;;5037188;28;20030;-52
2023/09/10 12:35:55;;;;;;;4.47;3.63;;;36.10;84.80;;;;;;5037345;28;20029;-54
2023/09/10 12:38:21;;;;;;;4.20;3.60;;;36.50;85.00;;;;;;5036744;28;20029;-51
2023/09/10 12:40:50;;;;;;;4.70;3.90;;;36.40;84.30;;;;;;5036959;28;20548;-53
2023/09/10 12:43:24;;;;;;;4.75;4.28;;;36.10;84.20;;;;;;5036673;28;20029;-52
2023/09/10 12:45:51;;;;;;;4.40;4.00;;;35.40;83.50;;;;;;5036812;28;20420;-51
2023/09/10 12:48:18;;;;;;;7.95;4.30;;;35.40;85.00;;;;;;5014602;28;20132;-50
2023/09/10 12:50:48;;;;;;;6.32;4.32;;;35.90;85.10;;;;;;5014855;28;20074;-49
2023/09/10 12:53:14;;;;;;;5.95;3.20;;;36.20;85.10;;;;;;5014432;28;20042;-52
2023/09/10 12:55:41;;;;;;;4.85;3.72;;;36.50;84.60;;;;;;5014607;28;20038;-50
2023/09/10 12:58:10;;;;;;;5.75;4.15;;;36.60;84.80;;;;;;4981859;28;20042;-50
2023/09/10 13:00:36;;;;;;;8.40;4.70;;;36.70;88.30;;;;;;5014489;28;20030;-51
2023/09/10 13:03:01;;;;;;;7.28;3.88;;;36.70;87.60;;;;;;5014472;28;20100;-52
2023/09/10 13:05:27;;;;;;;4.60;3.95;;;36.60;87.60;;;;;;5014389;28;20489;-51
2023/09/10 13:07:53;;;;;;;4.82;3.85;;;36.20;84.10;;;;;;5014355;28;20049;-53
2023/09/10 13:10:19;;;;;;;4.38;3.67;;;36.30;87.00;;;;;;4981734;28;20034;-52